createdAt,value
2022-11-25T00:01:45.988Z,15.33
2022-11-25T00:04:13.184Z,15.30
2022-11-25T00:06:40.253Z,15.29
2022-11-25T00:09:07.345Z,15.31
2022-11-25T00:11:34.451Z,15.28
2022-11-25T00:14:01.509Z,15.29
2022-11-25T00:16:28.720Z,15.28
2022-11-25T00:18:55.842Z,15.29
2022-11-25T00:21:22.959Z,15.27
2022-11-25T00:23:50.035Z,15.27
2022-11-25T00:26:17.137Z,15.26
2022-11-25T00:28:44.292Z,15.25
2022-11-25T00:31:11.385Z,15.27
2022-11-25T00:33:38.536Z,15.27
2022-11-25T00:36:05.602Z,15.28
2022-11-25T00:38:32.668Z,15.26
2022-11-25T00:41:18.756Z,15.26
2022-11-25T00:44:04.376Z,15.24
2022-11-25T00:46:31.460Z,15.23
2022-11-25T00:48:58.537Z,15.23
2022-11-25T00:51:25.631Z,15.24
2022-11-25T00:53:58.589Z,15.23
2022-11-25T00:56:26.133Z,15.22
2022-11-25T00:58:53.227Z,15.21
2022-11-25T01:01:20.398Z,15.20
2022-11-25T01:03:47.537Z,15.21
2022-11-25T01:06:14.623Z,15.21
2022-11-25T01:08:41.684Z,15.22
2022-11-25T01:11:08.772Z,15.19
2022-11-25T01:13:35.852Z,15.19
2022-11-25T01:16:03.047Z,15.19
2022-11-25T01:18:30.168Z,15.20
2022-11-25T01:20:57.286Z,15.19
2022-11-25T01:23:24.354Z,15.20
2022-11-25T01:25:51.428Z,15.18
2022-11-25T01:28:18.522Z,15.17
2022-11-25T01:30:45.598Z,15.17
2022-11-25T01:33:12.721Z,15.16
2022-11-25T01:35:39.797Z,15.16
2022-11-25T01:38:06.852Z,15.16
2022-11-25T01:40:33.938Z,15.17
2022-11-25T01:43:01.045Z,15.17
2022-11-25T01:45:28.898Z,15.15
2022-11-25T01:47:56.066Z,15.14
2022-11-25T01:50:23.132Z,15.15
2022-11-25T01:52:50.254Z,15.15
2022-11-25T01:55:17.344Z,15.11
2022-11-25T01:57:44.411Z,15.10
2022-11-25T02:00:11.493Z,15.11
2022-11-25T02:02:38.646Z,15.10
2022-11-25T02:05:05.803Z,15.10
2022-11-25T02:07:33.082Z,15.09
2022-11-25T02:10:00.335Z,15.10
2022-11-25T02:12:27.427Z,15.11
2022-11-25T02:14:54.485Z,15.06
2022-11-25T02:17:21.622Z,15.07
2022-11-25T02:19:48.701Z,15.09
2022-11-25T02:22:15.834Z,15.06
2022-11-25T02:24:42.908Z,15.06
2022-11-25T02:27:09.981Z,15.08
2022-11-25T02:29:37.052Z,15.04
2022-11-25T02:32:04.209Z,15.03
2022-11-25T02:34:31.324Z,15.08
2022-11-25T02:36:58.409Z,15.04
2022-11-25T02:39:25.481Z,15.03
2022-11-25T02:41:52.549Z,15.00
2022-11-25T02:44:20.324Z,15.04
2022-11-25T02:46:47.469Z,15.03
2022-11-25T02:49:14.599Z,15.03
2022-11-25T02:51:41.759Z,15.02
2022-11-25T02:54:08.811Z,15.02
2022-11-25T02:56:35.890Z,15.01
2022-11-25T02:59:02.980Z,15.01
2022-11-25T03:01:31.390Z,15.00
2022-11-25T03:03:58.702Z,14.99
2022-11-25T03:06:25.787Z,14.99
2022-11-25T03:08:52.897Z,15.02
2022-11-25T03:11:19.971Z,14.99
2022-11-25T03:13:47.046Z,14.99
2022-11-25T03:16:14.220Z,14.98
2022-11-25T03:18:41.367Z,15.00
2022-11-25T03:21:08.496Z,14.97
2022-11-25T03:23:35.565Z,14.98
2022-11-25T03:26:02.638Z,14.96
2022-11-25T03:28:29.791Z,14.96
2022-11-25T03:30:56.902Z,14.93
2022-11-25T03:33:24.034Z,14.95
2022-11-25T03:35:51.197Z,14.98
2022-11-25T03:38:18.318Z,14.96
2022-11-25T03:40:47.273Z,14.96
2022-11-25T03:43:14.354Z,14.94
2022-11-25T03:45:41.485Z,14.94
2022-11-25T03:48:08.996Z,14.94
2022-11-25T03:50:36.068Z,14.94
2022-11-25T03:53:03.154Z,14.92
2022-11-25T03:55:30.223Z,14.90
2022-11-25T03:57:57.356Z,14.91
2022-11-25T04:00:24.949Z,14.92
2022-11-25T04:02:52.060Z,14.90
2022-11-25T04:05:19.562Z,14.90
2022-11-25T04:07:46.723Z,14.91
2022-11-25T04:10:14.015Z,14.90
2022-11-25T04:12:47.082Z,14.91
2022-11-25T04:15:14.240Z,14.90
2022-11-25T04:17:41.328Z,14.88
2022-11-25T04:20:08.417Z,14.89
2022-11-25T04:22:35.480Z,14.87
2022-11-25T04:25:02.577Z,14.88
2022-11-25T04:27:29.837Z,14.87
2022-11-25T04:29:56.905Z,14.89
2022-11-25T04:32:23.972Z,14.87
2022-11-25T04:34:51.033Z,14.88
2022-11-25T04:37:18.119Z,14.85
2022-11-25T04:39:45.211Z,14.85
2022-11-25T04:42:41.439Z,14.84
2022-11-25T04:45:24.387Z,14.87
2022-11-25T04:47:51.818Z,14.84
2022-11-25T04:50:19.003Z,14.85
2022-11-25T04:52:46.111Z,14.85
2022-11-25T04:55:13.191Z,14.84
2022-11-25T04:57:40.339Z,14.85
2022-11-25T05:00:07.459Z,14.81
2022-11-25T05:02:34.685Z,14.83
2022-11-25T05:05:01.791Z,14.82
2022-11-25T05:07:28.994Z,14.81
2022-11-25T05:09:56.341Z,14.80
2022-11-25T05:12:23.441Z,14.82
2022-11-25T05:14:50.554Z,14.80
2022-11-25T05:17:17.733Z,14.78
2022-11-25T05:19:46.056Z,14.80
2022-11-25T05:22:13.193Z,14.78
2022-11-25T05:24:40.257Z,14.80
2022-11-25T05:27:07.324Z,14.80
2022-11-25T05:29:34.413Z,14.80
2022-11-25T05:32:01.558Z,14.81
2022-11-25T05:34:28.637Z,14.79
2022-11-25T05:36:55.756Z,14.77
2022-11-25T05:39:22.866Z,14.76
2022-11-25T05:41:49.949Z,14.78
2022-11-25T05:44:22.422Z,14.77
2022-11-25T05:46:50.213Z,14.76
2022-11-25T05:49:17.303Z,14.76
2022-11-25T05:51:44.378Z,14.78
2022-11-25T05:54:11.454Z,14.77
2022-11-25T05:56:38.866Z,14.77
2022-11-25T05:59:05.977Z,14.74
2022-11-25T06:01:33.210Z,14.74
2022-11-25T06:04:00.322Z,14.73
2022-11-25T06:06:27.494Z,14.74
2022-11-25T06:08:54.557Z,14.73
2022-11-25T06:11:21.617Z,14.73
2022-11-25T06:13:48.719Z,14.74
2022-11-25T06:16:15.835Z,14.71
2022-11-25T06:18:42.918Z,14.70
2022-11-25T06:21:10.030Z,14.72
2022-11-25T06:23:37.130Z,14.73
2022-11-25T06:26:04.238Z,14.71
2022-11-25T06:28:31.292Z,14.73
2022-11-25T06:30:58.383Z,14.71
2022-11-25T06:33:25.478Z,14.70
2022-11-25T06:35:52.554Z,14.70
2022-11-25T06:38:19.616Z,14.68
2022-11-25T06:40:46.689Z,14.69
2022-11-25T06:43:13.763Z,14.68
2022-11-25T06:45:40.825Z,14.70
2022-11-25T06:48:07.889Z,14.70
2022-11-25T06:50:34.954Z,14.69
2022-11-25T06:53:02.017Z,14.69
2022-11-25T06:55:29.091Z,14.68
2022-11-25T06:58:13.934Z,14.68
2022-11-25T07:00:43.215Z,14.68
2022-11-25T07:03:10.335Z,14.66
2022-11-25T07:05:37.441Z,14.65
2022-11-25T07:08:04.498Z,14.65
2022-11-25T07:10:31.565Z,14.66
2022-11-25T07:12:59.481Z,14.66
2022-11-25T07:15:26.548Z,14.66
2022-11-25T07:17:53.618Z,14.67
2022-11-25T07:20:20.682Z,14.65
2022-11-25T07:22:47.742Z,14.67
2022-11-25T07:25:14.824Z,14.65
2022-11-25T07:27:41.890Z,14.63
2022-11-25T07:31:09.365Z,14.62
2022-11-25T07:32:56.070Z,14.64
2022-11-25T07:35:23.146Z,14.64
2022-11-25T07:37:50.227Z,14.65
2022-11-25T07:40:17.316Z,14.64
2022-11-25T07:42:44.593Z,14.62
2022-11-25T07:45:11.726Z,14.64
2022-11-25T07:47:38.854Z,14.64
2022-11-25T07:50:05.929Z,14.64
2022-11-25T07:52:33.170Z,14.61
2022-11-25T07:55:00.258Z,14.63
2022-11-25T07:57:27.478Z,14.62
2022-11-25T07:59:54.533Z,14.63
2022-11-25T08:02:21.729Z,14.64
2022-11-25T08:04:48.919Z,14.63
2022-11-25T08:07:16.040Z,14.63
2022-11-25T08:09:43.148Z,14.67
2022-11-25T08:12:10.245Z,14.68
2022-11-25T08:14:37.305Z,14.67
2022-11-25T08:17:06.598Z,14.66
2022-11-25T08:19:33.706Z,14.67
2022-11-25T08:22:00.834Z,14.67
2022-11-25T08:24:28.225Z,14.68
2022-11-25T08:26:58.585Z,14.67
2022-11-25T08:29:25.653Z,14.65
2022-11-25T08:31:52.767Z,14.66
2022-11-25T08:34:20.009Z,14.66
2022-11-25T08:36:48.892Z,14.69
2022-11-25T08:39:44.212Z,14.69
2022-11-25T08:42:04.556Z,14.67
2022-11-25T08:44:31.651Z,14.68
2022-11-25T08:46:58.925Z,14.68
2022-11-25T08:49:27.021Z,14.70
2022-11-25T08:51:54.137Z,14.71
2022-11-25T08:54:21.198Z,14.72
2022-11-25T08:56:48.321Z,14.70
2022-11-25T08:59:15.389Z,14.71
2022-11-25T09:01:42.731Z,14.71
2022-11-25T09:04:09.873Z,14.76
2022-11-25T09:06:36.966Z,14.82
2022-11-25T09:09:06.057Z,14.88
2022-11-25T09:11:33.246Z,14.92
2022-11-25T09:14:00.427Z,14.95
2022-11-25T09:16:28.498Z,14.96
2022-11-25T09:18:56.470Z,14.99
2022-11-25T09:21:25.135Z,15.02
2022-11-25T09:23:52.677Z,15.04
2022-11-25T09:26:19.769Z,15.03
2022-11-25T09:28:46.843Z,15.06
2022-11-25T09:31:14.320Z,15.07
2022-11-25T09:33:41.447Z,15.00
2022-11-25T09:36:08.522Z,14.98
2022-11-25T09:38:42.813Z,15.03
2022-11-25T09:41:10.273Z,15.10
2022-11-25T09:43:56.213Z,15.10
2022-11-25T09:46:41.894Z,15.10
2022-11-25T09:49:09.015Z,15.13
2022-11-25T09:51:36.349Z,15.12
2022-11-25T09:54:03.411Z,15.14
2022-11-25T09:56:30.522Z,15.16
2022-11-25T09:58:57.583Z,15.15
2022-11-25T10:01:24.706Z,15.17
2022-11-25T10:03:51.777Z,15.15
2022-11-25T10:06:18.939Z,15.16
2022-11-25T10:08:46.089Z,15.16
2022-11-25T10:11:13.160Z,15.19
2022-11-25T10:13:40.236Z,15.18
2022-11-25T10:16:07.386Z,15.15
2022-11-25T10:18:34.507Z,15.20
2022-11-25T10:21:01.581Z,15.19
2022-11-25T10:23:28.807Z,15.21
2022-11-25T10:25:55.971Z,15.24
2022-11-25T10:28:23.106Z,15.25
2022-11-25T10:30:50.950Z,15.28
2022-11-25T10:33:18.139Z,15.27
2022-11-25T10:35:45.215Z,15.24
2022-11-25T10:38:17.480Z,15.25
2022-11-25T10:40:46.204Z,15.25
2022-11-25T10:43:14.076Z,15.29
2022-11-25T10:45:41.235Z,15.25
2022-11-25T10:48:08.297Z,15.28
2022-11-25T10:50:35.357Z,15.28
2022-11-25T10:53:02.488Z,15.28
2022-11-25T10:55:29.552Z,15.27
2022-11-25T10:57:56.638Z,15.28
2022-11-25T11:00:23.821Z,15.32
2022-11-25T11:02:50.944Z,15.20
2022-11-25T11:05:18.281Z,15.33
2022-11-25T11:07:45.391Z,15.30
2022-11-25T11:10:12.509Z,15.40
2022-11-25T11:12:39.576Z,15.43
2022-11-25T11:15:06.636Z,15.45
2022-11-25T11:17:36.759Z,15.44
2022-11-25T11:20:04.474Z,15.44
2022-11-25T11:22:31.558Z,15.44
2022-11-25T11:24:58.624Z,15.43
2022-11-25T11:27:25.692Z,15.43
2022-11-25T11:29:52.765Z,15.43
2022-11-25T11:32:19.853Z,15.43
2022-11-25T11:34:47.071Z,15.45
2022-11-25T11:37:14.142Z,15.44
2022-11-25T11:39:41.215Z,15.41
2022-11-25T11:42:08.291Z,15.44
2022-11-25T11:44:35.575Z,15.44
2022-11-25T11:47:03.059Z,15.47
2022-11-25T11:49:30.885Z,15.44
2022-11-25T11:51:58.731Z,15.42
2022-11-25T11:54:25.824Z,15.43
2022-11-25T11:56:55.528Z,15.45
2022-11-25T11:59:22.862Z,15.45
2022-11-25T12:01:49.981Z,15.45
2022-11-25T12:04:17.079Z,15.48
2022-11-25T12:06:44.189Z,15.46
2022-11-25T12:09:11.254Z,15.50
2022-11-25T12:11:38.330Z,15.47
2022-11-25T12:14:05.506Z,15.48
2022-11-25T12:16:32.794Z,15.48
2022-11-25T12:18:59.918Z,15.50
2022-11-25T12:21:26.999Z,15.53
2022-11-25T12:23:54.907Z,15.50
2022-11-25T12:26:22.441Z,15.51
2022-11-25T12:28:49.498Z,15.50
2022-11-25T12:31:16.676Z,15.50
2022-11-25T12:33:43.810Z,15.51
2022-11-25T12:36:11.238Z,15.52
2022-11-25T12:38:38.395Z,15.51
2022-11-25T12:41:05.450Z,15.50
2022-11-25T12:43:32.534Z,15.52
2022-11-25T12:45:59.678Z,15.53
2022-11-25T12:48:27.702Z,15.58
2022-11-25T12:50:54.873Z,15.58
2022-11-25T12:53:24.285Z,15.58
2022-11-25T12:55:51.377Z,15.52
2022-11-25T12:58:18.506Z,15.54
2022-11-25T13:00:46.554Z,15.60
2022-11-25T13:03:14.286Z,15.61
2022-11-25T13:05:41.497Z,15.59
2022-11-25T13:08:08.574Z,15.61
2022-11-25T13:10:35.741Z,15.61
2022-11-25T13:13:03.123Z,15.63
2022-11-25T13:15:31.024Z,15.57
2022-11-25T13:17:58.403Z,15.55
2022-11-25T13:20:25.530Z,15.54
2022-11-25T13:22:53.283Z,15.57
2022-11-25T13:25:20.371Z,15.51
2022-11-25T13:27:47.479Z,15.47
2022-11-25T13:30:14.538Z,15.42
2022-11-25T13:32:42.330Z,15.42
2022-11-25T13:35:09.441Z,15.48
2022-11-25T13:37:36.860Z,15.55
2022-11-25T13:40:04.039Z,15.54
2022-11-25T13:42:31.205Z,15.52
2022-11-25T13:44:58.286Z,15.54
2022-11-25T13:47:25.365Z,15.52
2022-11-25T13:49:52.430Z,15.52
2022-11-25T13:52:19.504Z,15.52
2022-11-25T13:54:46.561Z,15.51
2022-11-25T13:57:13.631Z,15.49
2022-11-25T13:59:40.707Z,15.49
2022-11-25T14:02:07.850Z,15.46
2022-11-25T14:04:35.203Z,15.50
2022-11-25T14:07:02.507Z,15.51
2022-11-25T14:09:29.573Z,15.56
2022-11-25T14:11:56.653Z,15.60
2022-11-25T14:14:23.828Z,15.59
2022-11-25T14:16:51.021Z,15.55
2022-11-25T14:22:05.255Z,15.57
2022-11-25T14:24:32.441Z,15.60
2022-11-25T14:26:59.499Z,15.64
2022-11-25T14:29:28.277Z,15.66
2022-11-25T14:31:55.868Z,15.66
2022-11-25T14:34:22.998Z,15.68
2022-11-25T14:36:50.066Z,15.58
2022-11-25T14:39:17.147Z,15.60
2022-11-25T14:41:44.328Z,15.63
2022-11-25T14:44:11.618Z,15.61
2022-11-25T14:46:38.694Z,15.64
2022-11-25T14:49:18.934Z,15.64
2022-11-25T14:51:54.180Z,15.68
2022-11-25T14:54:21.767Z,15.72
2022-11-25T14:56:49.159Z,15.69
2022-11-25T14:59:16.238Z,15.61
2022-11-25T15:01:43.314Z,15.67
2022-11-25T15:04:10.501Z,15.73
2022-11-25T15:06:37.630Z,15.75
2022-11-25T15:09:04.699Z,15.67
2022-11-25T15:11:32.059Z,15.68
2022-11-25T15:13:59.199Z,15.74
2022-11-25T15:16:30.035Z,15.74
2022-11-25T15:18:57.186Z,15.70
2022-11-25T15:21:24.261Z,15.73
2022-11-25T15:23:51.334Z,15.68
2022-11-25T15:26:18.646Z,15.71
2022-11-25T15:28:45.918Z,15.78
2022-11-25T15:31:13.129Z,15.78
2022-11-25T15:33:40.259Z,15.82
2022-11-25T15:36:07.387Z,15.73
2022-11-25T15:38:34.738Z,15.76
2022-11-25T15:41:01.802Z,15.74
2022-11-25T15:43:29.806Z,15.78
2022-11-25T15:45:57.762Z,15.82
2022-11-25T15:48:24.924Z,15.92
2022-11-25T15:50:51.992Z,15.97
2022-11-25T15:53:23.384Z,16.08
2022-11-25T15:55:51.922Z,16.12
2022-11-25T15:58:19.006Z,16.14
2022-11-25T16:00:46.341Z,16.19
2022-11-25T16:03:13.478Z,16.19
2022-11-25T16:05:40.576Z,16.32
2022-11-25T16:08:07.654Z,16.32
2022-11-25T16:10:34.894Z,16.35
2022-11-25T16:13:01.988Z,16.35
2022-11-25T16:15:29.089Z,16.34
2022-11-25T16:18:06.863Z,16.37
2022-11-25T16:20:43.261Z,16.38
2022-11-25T16:23:10.328Z,16.42
2022-11-25T16:25:37.405Z,16.46
2022-11-25T16:28:04.475Z,16.43
2022-11-25T16:30:34.683Z,16.52
2022-11-25T16:33:01.754Z,16.54
2022-11-25T16:35:28.828Z,16.57
2022-11-25T16:37:55.898Z,16.59
2022-11-25T16:40:23.245Z,16.59
2022-11-25T16:42:50.415Z,16.59
2022-11-25T16:45:17.515Z,16.59
2022-11-25T16:47:44.579Z,16.63
2022-11-25T16:50:14.241Z,16.62
2022-11-25T16:52:41.537Z,16.63
2022-11-25T16:55:08.625Z,16.59
2022-11-25T16:57:35.692Z,16.70
2022-11-25T17:00:07.782Z,16.75
2022-11-25T17:02:34.983Z,16.74
2022-11-25T17:05:02.122Z,16.79
2022-11-25T17:07:33.708Z,16.73
2022-11-25T17:10:01.197Z,16.78
2022-11-25T17:12:28.265Z,16.79
2022-11-25T17:14:55.428Z,16.81
2022-11-25T17:17:24.441Z,16.84
2022-11-25T17:19:51.945Z,16.86
2022-11-25T17:22:19.081Z,16.87
2022-11-25T17:24:46.452Z,16.80
2022-11-25T17:27:13.529Z,16.81
2022-11-25T17:29:40.842Z,16.99
2022-11-25T17:32:08.221Z,16.99
2022-11-25T17:34:39.388Z,17.01
2022-11-25T17:37:06.695Z,17.05
2022-11-25T17:39:33.773Z,17.04
2022-11-25T17:42:02.292Z,17.05
2022-11-25T17:44:29.400Z,17.08
2022-11-25T17:46:56.529Z,17.09
2022-11-25T17:49:23.640Z,16.99
2022-11-25T17:51:50.737Z,17.01
2022-11-25T17:54:17.872Z,17.05
2022-11-25T17:56:50.580Z,16.98
2022-11-25T17:59:19.466Z,17.01
2022-11-25T18:01:46.790Z,17.09
2022-11-25T18:04:16.371Z,17.08
2022-11-25T18:06:43.987Z,17.13
2022-11-25T18:09:11.353Z,17.23
2022-11-25T18:11:42.509Z,17.22
2022-11-25T18:14:12.543Z,17.31
2022-11-25T18:16:41.394Z,17.23
2022-11-25T18:19:08.557Z,17.11
2022-11-25T18:21:35.627Z,17.05
2022-11-25T18:24:02.799Z,17.07
2022-11-25T18:26:29.912Z,17.07
2022-11-25T18:28:56.974Z,17.13
2022-11-25T18:31:24.214Z,17.04
2022-11-25T18:33:51.366Z,17.01
2022-11-25T18:36:18.526Z,17.01
2022-11-25T18:38:48.293Z,17.02
2022-11-25T18:41:15.397Z,17.05
2022-11-25T18:43:42.477Z,17.06
2022-11-25T18:46:09.792Z,17.05
2022-11-25T18:48:37.113Z,17.04
2022-11-25T18:51:04.919Z,17.11
2022-11-25T18:53:33.538Z,17.03
2022-11-25T18:56:00.634Z,17.11
2022-11-25T18:58:35.447Z,17.09
2022-11-25T19:01:03.201Z,17.11
2022-11-25T19:03:30.421Z,17.21
2022-11-25T19:05:59.469Z,17.18
2022-11-25T19:08:26.572Z,17.23
2022-11-25T19:10:53.688Z,17.22
2022-11-25T19:13:20.767Z,17.19
2022-11-25T19:15:47.978Z,17.21
2022-11-25T19:18:15.767Z,17.24
2022-11-25T19:20:42.902Z,17.20
2022-11-25T19:23:10.049Z,17.28
2022-11-25T19:25:37.161Z,17.26
2022-11-25T19:28:04.227Z,17.13
2022-11-25T19:30:31.303Z,17.13
2022-11-25T19:32:58.385Z,17.23
2022-11-25T19:35:25.473Z,17.27
2022-11-25T19:37:52.555Z,17.31
2022-11-25T19:40:19.683Z,17.41
2022-11-25T19:42:48.522Z,17.39
2022-11-25T19:45:15.954Z,17.45
2022-11-25T19:47:43.073Z,17.50
2022-11-25T19:50:10.153Z,17.59
2022-11-25T19:52:37.973Z,17.62
2022-11-25T19:55:05.057Z,17.70
2022-11-25T19:57:32.146Z,17.72
2022-11-25T19:59:59.653Z,17.55
2022-11-25T20:02:27.222Z,17.57
2022-11-25T20:04:55.702Z,17.46
2022-11-25T20:07:22.963Z,17.44
2022-11-25T20:09:51.500Z,17.45
2022-11-25T20:12:19.077Z,17.45
2022-11-25T20:14:46.496Z,17.39
2022-11-25T20:17:13.610Z,17.37
2022-11-25T20:19:40.694Z,17.48
2022-11-25T20:22:07.801Z,17.51
2022-11-25T20:24:35.079Z,17.54
2022-11-25T20:27:02.321Z,17.54
2022-11-25T20:29:30.766Z,17.67
2022-11-25T20:32:05.080Z,17.61
2022-11-25T20:34:42.195Z,17.72
2022-11-25T20:37:09.599Z,17.84
2022-11-25T20:39:36.689Z,17.75
2022-11-25T20:42:03.803Z,17.66
2022-11-25T20:44:30.998Z,17.60
2022-11-25T20:46:58.092Z,17.71
2022-11-25T20:49:29.426Z,17.80
2022-11-25T20:51:56.612Z,17.84
2022-11-25T20:54:30.382Z,17.88
2022-11-25T20:56:57.632Z,17.93
2022-11-25T20:59:24.817Z,17.93
2022-11-25T21:01:52.798Z,17.85
2022-11-25T21:04:20.059Z,17.89
2022-11-25T21:06:47.207Z,18.03
2022-11-25T21:09:14.291Z,18.00
2022-11-25T21:11:41.385Z,17.83
2022-11-25T21:14:08.730Z,17.72
2022-11-25T21:16:36.971Z,17.76
2022-11-25T21:19:05.597Z,17.83
2022-11-25T21:21:32.703Z,17.84
2022-11-25T21:23:59.831Z,17.81
2022-11-25T21:26:27.743Z,17.70
2022-11-25T21:28:54.914Z,17.59
2022-11-25T21:31:22.141Z,17.70
2022-11-25T21:33:49.258Z,17.81
2022-11-25T21:36:16.326Z,17.77
2022-11-25T21:38:44.049Z,17.72
2022-11-25T21:41:11.232Z,17.66
2022-11-25T21:43:38.311Z,17.67
2022-11-25T21:46:05.401Z,17.69
2022-11-25T21:48:32.564Z,17.71
2022-11-25T21:50:59.655Z,17.75
2022-11-25T21:53:26.782Z,17.65
2022-11-25T21:55:54.080Z,17.67
2022-11-25T21:58:21.464Z,17.69
2022-11-25T22:00:51.159Z,17.84
2022-11-25T22:03:18.470Z,17.91
2022-11-25T22:05:45.568Z,17.90
2022-11-25T22:08:12.641Z,17.87
2022-11-25T22:10:39.745Z,17.88
2022-11-25T22:13:06.940Z,17.84
2022-11-25T22:15:34.080Z,17.72
2022-11-25T22:18:01.166Z,17.74
2022-11-25T22:20:28.283Z,17.80
2022-11-25T22:22:55.407Z,17.71
2022-11-25T22:25:22.752Z,17.60
2022-11-25T22:27:49.839Z,17.60
2022-11-25T22:30:17.336Z,17.71
2022-11-25T22:32:44.515Z,17.68
2022-11-25T22:35:11.611Z,17.52
2022-11-25T22:37:38.710Z,17.50
2022-11-25T22:40:05.776Z,17.49
2022-11-25T22:42:32.853Z,17.43
2022-11-25T22:44:59.968Z,17.45
2022-11-25T22:47:27.100Z,17.50
2022-11-25T22:49:54.223Z,17.49
2022-11-25T22:52:21.405Z,17.47
2022-11-25T22:54:48.492Z,17.39
2022-11-25T22:57:15.564Z,17.45
2022-11-25T22:59:43.196Z,17.43
2022-11-25T23:02:10.329Z,17.27
2022-11-25T23:04:37.695Z,17.22
2022-11-25T23:07:04.984Z,17.21
2022-11-25T23:09:32.047Z,17.26
2022-11-25T23:11:59.153Z,17.26
2022-11-25T23:14:26.212Z,17.17
2022-11-25T23:16:53.319Z,17.13
2022-11-25T23:19:20.401Z,17.24
2022-11-25T23:21:47.481Z,17.27
2022-11-25T23:24:14.548Z,17.26
2022-11-25T23:26:41.640Z,17.22
2022-11-25T23:29:08.764Z,17.07
2022-11-25T23:31:35.966Z,16.99
2022-11-25T23:34:03.108Z,16.95
2022-11-25T23:36:30.170Z,16.93
2022-11-25T23:38:57.242Z,17.00
2022-11-25T23:41:24.326Z,16.96
2022-11-25T23:43:51.466Z,16.95
2022-11-25T23:46:18.601Z,16.91
2022-11-25T23:48:45.784Z,16.94
2022-11-25T23:51:12.889Z,16.93
2022-11-25T23:53:39.960Z,16.90
2022-11-25T23:56:07.029Z,16.89
2022-11-25T23:58:34.125Z,16.86
